»·PEaware :: N356HK KSMX-KBFL

N356HK :: KSMX-KBFL

FLIGHT INFORMATION

Flight Status: Arrived
Operator: Privately registered:
United States
More flights under this callsign
Pilot: Anonymous 23149 (23149)
Aircraft: CIRRUS SR-22
(SR22)
More flights by this aircraft type
Origin: KSMX Santa Maria Pub/Capt Hancock
United States
Destination: KBFL Meadows
United States
More flights between these airports :: More routes between these airports
Route: +
File this flight plan on PilotEdge
Remarks: CAT 5
Altitude:
(Current/Filed)
7,500ft
Speed:
(Current/Filed)
172kts
Departed: 28-Jan-19 01:45 PM
Arrived: 28-Jan-19 02:28 PM
Distance/Time
Traveled:
76nm/0:42
Distance/Time
To Go:
Arrived

Flight Plot

Page will automatically refresh every two minutes.


Map Options




Map Legend


Flown Route
Filed Route
Departure Airport
Arrival Airport
Navaid (VOR, NDB)
Fix

Horizontal Profiles

Position Reports

Time Latitude Longitude Heading Altitude Ground
Speed
28-Jan-19 13:32 34.900597 -120.450561 284 265ft 0kts
28-Jan-19 13:33 34.900597 -120.450561 284 265ft 0kts
28-Jan-19 13:34 34.900597 -120.450561 284 265ft 0kts
28-Jan-19 13:35 34.900598 -120.450563 284 265ft 0kts
28-Jan-19 13:36 34.900598 -120.450565 284 265ft 0kts
28-Jan-19 13:37 34.900599 -120.450567 284 265ft 0kts
28-Jan-19 13:38 34.900599 -120.450569 284 265ft 0kts
28-Jan-19 13:39 34.900068 -120.451317 222 265ft 11kts
28-Jan-19 13:40 34.896259 -120.447520 135 265ft 35kts
28-Jan-19 13:41 34.893786 -120.445033 302 265ft 0kts
28-Jan-19 13:42 34.893786 -120.445033 302 265ft 0kts
28-Jan-19 13:43 34.893498 -120.445271 179 265ft 0kts
28-Jan-19 13:44 34.892922 -120.445953 297 265ft 15kts
28-Jan-19 13:45 34.908031 -120.463655 312 880ft 98kts
28-Jan-19 13:46 34.900894 -120.490371 220 1914ft 110kts
28-Jan-19 13:46 34.879734 -120.484061 133 2866ft 111kts
28-Jan-19 13:47 34.848902 -120.446577 133 3094ft 152kts
28-Jan-19 13:49 34.807443 -120.424548 164 4562ft 136kts
28-Jan-19 13:49 34.792405 -120.395785 86 5658ft 127kts
28-Jan-19 13:50 34.807541 -120.359530 45 6999ft 124kts
28-Jan-19 13:51 34.830156 -120.321130 58 7522ft 157kts
28-Jan-19 13:52 34.852819 -120.273056 57 7518ft 167kts
28-Jan-19 13:53 34.877035 -120.222991 57 7521ft 178kts
28-Jan-19 13:54 34.901910 -120.171641 57 7518ft 179kts
28-Jan-19 13:55 34.926428 -120.120985 57 7508ft 170kts
28-Jan-19 13:56 34.950850 -120.070519 57 7512ft 178kts
28-Jan-19 13:57 34.975762 -120.018914 57 7503ft 179kts
28-Jan-19 13:58 35.000521 -119.967559 58 7503ft 177kts
28-Jan-19 13:59 35.024903 -119.916912 58 7468ft 171kts
28-Jan-19 14:00 35.049060 -119.866673 58 7465ft 175kts
28-Jan-19 14:01 35.073519 -119.815714 58 7460ft 176kts
28-Jan-19 14:02 35.098243 -119.764130 58 7463ft 179kts
28-Jan-19 14:03 35.122503 -119.713432 58 7461ft 169kts
28-Jan-19 14:04 35.146525 -119.663191 58 7498ft 176kts
28-Jan-19 14:05 35.171419 -119.610994 59 6888ft 179kts
28-Jan-19 14:06 35.196286 -119.558794 59 6046ft 178kts
28-Jan-19 14:07 35.220890 -119.507051 59 4855ft 177kts
28-Jan-19 14:08 35.244040 -119.458309 59 3694ft 168kts
28-Jan-19 14:09 35.265066 -119.414023 59 3513ft 160kts
28-Jan-19 14:10 35.287277 -119.367181 59 3503ft 159kts
28-Jan-19 14:11 35.310093 -119.319543 55 3502ft 167kts
28-Jan-19 14:12 35.346958 -119.289418 24 3496ft 158kts
28-Jan-19 14:13 35.383342 -119.269154 24 3298ft 177kts
28-Jan-19 14:14 35.425349 -119.245648 24 2379ft 149kts
28-Jan-19 14:15 35.460190 -119.225902 24 1435ft 127kts
28-Jan-19 14:16 35.488545 -119.207679 63 1438ft 104kts
28-Jan-19 14:17 35.469095 -119.189959 127 1508ft 98kts
28-Jan-19 14:18 35.460878 -119.159242 103 1605ft 81kts
28-Jan-19 14:19 35.442980 -119.135974 135 1481ft 109kts
28-Jan-19 14:20 35.421414 -119.108039 128 1658ft 101kts
28-Jan-19 14:21 35.399924 -119.077829 133 1488ft 116kts
28-Jan-19 14:22 35.377217 -119.053081 137 1488ft 105kts
28-Jan-19 14:23 35.374171 -119.026590 47 1508ft 98kts
28-Jan-19 14:24 35.396819 -119.020390 338 1503ft 93kts
28-Jan-19 14:25 35.417292 -119.036511 318 878ft 87kts
28-Jan-19 14:26 35.434546 -119.056983 316 511ft 79kts
28-Jan-19 14:27 35.440071 -119.062666 3 511ft 0kts
28-Jan-19 14:28 35.440071 -119.062666 3 511ft 0kts
28-Jan-19 14:29 35.440192 -119.061602 136 511ft 17kts
28-Jan-19 14:30 35.434717 -119.054999 135 511ft 21kts
28-Jan-19 14:31 35.430281 -119.049633 135 511ft 26kts
28-Jan-19 14:32 35.428664 -119.045849 82 511ft 12kts
28-Jan-19 14:33 35.428572 -119.045668 222 511ft 0kts
28-Jan-19 14:34 35.428572 -119.045668 222 511ft 0kts
28-Jan-19 14:35 35.428572 -119.045668 222 511ft 0kts
28-Jan-19 14:36 35.428572 -119.045668 222 511ft 0kts
28-Jan-19 14:37 35.428572 -119.045668 222 511ft 0kts
28-Jan-19 14:38 35.428572 -119.045668 222 511ft 0kts
28-Jan-19 14:39 35.428572 -119.045668 222 511ft 0kts
28-Jan-19 14:40 35.428572 -119.045668 222 511ft 0kts
28-Jan-19 14:41 35.428572 -119.045668 222 511ft 0kts

Navigation Log

Ident Type
Flight plan parsing failed, navigation log unavailable